createdAt,value
2019-05-21T00:04:33.965Z,25.50
2019-05-21T00:07:04.819Z,22.95
2019-05-21T00:09:35.461Z,24.00
2019-05-21T00:12:06.343Z,24.87
2019-05-21T00:14:37.115Z,24.77
2019-05-21T00:17:08.096Z,28.12
2019-05-21T00:19:38.860Z,24.65
2019-05-21T00:22:09.798Z,26.33
2019-05-21T00:24:40.714Z,29.67
2019-05-21T00:27:11.418Z,92.00
2019-05-21T00:29:44.651Z,76.85
2019-05-21T00:32:20.283Z,60.90
2019-05-21T00:34:53.408Z,86.80
2019-05-21T00:37:26.467Z,77.40
2019-05-21T00:39:59.823Z,55.63
2019-05-21T00:42:33.088Z,45.48
2019-05-21T00:45:03.885Z,94.87
2019-05-21T00:47:34.780Z,103.32
2019-05-21T00:50:07.300Z,34.30
2019-05-21T00:52:38.064Z,98.58
2019-05-21T00:55:10.057Z,104.90
2019-05-21T00:57:41.899Z,109.45
2019-05-21T01:00:12.990Z,79.35
2019-05-21T01:02:43.610Z,45.85
2019-05-21T01:05:14.630Z,26.50
2019-05-21T01:07:45.602Z,28.60
2019-05-21T01:10:16.499Z,23.50
2019-05-21T01:12:47.296Z,30.65
2019-05-21T01:15:18.154Z,30.45
2019-05-21T01:17:49.289Z,40.92
2019-05-21T01:20:20.238Z,31.17
2019-05-21T01:22:52.089Z,28.07
2019-05-21T01:25:22.863Z,31.02
2019-05-21T01:27:53.909Z,33.13
2019-05-21T01:30:24.870Z,33.38
2019-05-21T01:32:56.469Z,25.50
2019-05-21T01:35:28.111Z,60.95
2019-05-21T01:37:58.930Z,40.20
2019-05-21T01:40:29.735Z,36.00
2019-05-21T01:43:03.341Z,29.80
2019-05-21T01:45:33.209Z,36.00
2019-05-21T01:48:04.449Z,36.60
2019-05-21T01:50:35.221Z,29.80
2019-05-21T01:53:06.127Z,28.17
2019-05-21T01:55:37.032Z,41.95
2019-05-21T01:58:07.917Z,31.95
2019-05-21T02:00:39.674Z,29.52
2019-05-21T02:03:10.434Z,36.42
2019-05-21T02:05:41.263Z,38.23
2019-05-21T02:08:12.280Z,35.05
2019-05-21T02:10:43.121Z,36.58
2019-05-21T02:13:14.181Z,35.08
2019-05-21T02:15:47.036Z,34.90
2019-05-21T02:18:18.361Z,26.52
2019-05-21T02:20:49.056Z,27.67
2019-05-21T02:23:19.823Z,23.52
2019-05-21T02:25:50.738Z,40.95
2019-05-21T02:28:21.650Z,19.70
2019-05-21T02:30:56.255Z,25.60
2019-05-21T02:33:26.107Z,36.23
2019-05-21T02:35:58.569Z,35.15
2019-05-21T02:38:29.539Z,21.95
2019-05-21T02:41:00.527Z,27.05
2019-05-21T02:43:31.740Z,26.00
2019-05-21T02:46:02.646Z,25.48
2019-05-21T02:48:33.458Z,21.52
2019-05-21T02:51:04.379Z,42.45
2019-05-21T02:53:35.382Z,23.90
2019-05-21T02:56:06.658Z,48.95
2019-05-21T02:58:37.444Z,30.35
2019-05-21T03:01:08.441Z,24.37
2019-05-21T03:03:39.395Z,25.02
2019-05-21T03:06:14.371Z,26.48
2019-05-21T03:08:42.695Z,24.25
2019-05-21T03:11:14.581Z,24.12
2019-05-21T03:13:45.675Z,25.75
2019-05-21T03:16:16.658Z,21.95
2019-05-21T03:18:47.791Z,22.25
2019-05-21T03:21:18.677Z,22.32
2019-05-21T03:23:49.497Z,25.92
2019-05-21T03:26:20.680Z,21.77
2019-05-21T03:28:51.579Z,50.98
2019-05-21T03:31:24.667Z,33.60
2019-05-21T03:33:56.601Z,22.73
2019-05-21T03:36:33.419Z,25.55
2019-05-21T03:39:00.703Z,19.77
2019-05-21T03:41:31.486Z,20.15
2019-05-21T03:44:02.457Z,23.35
2019-05-21T03:46:34.142Z,21.35
2019-05-21T03:49:05.000Z,23.92
2019-05-21T03:51:35.900Z,27.10
2019-05-21T03:54:06.850Z,24.57
2019-05-21T03:56:37.832Z,23.98
2019-05-21T03:59:08.748Z,22.75
2019-05-21T04:01:39.433Z,22.77
2019-05-21T04:04:09.977Z,21.55
2019-05-21T04:06:51.153Z,32.08
2019-05-21T04:09:21.052Z,27.22
2019-05-21T04:11:53.296Z,22.22
2019-05-21T04:14:25.988Z,23.07
2019-05-21T04:16:58.379Z,23.87
2019-05-21T04:19:30.562Z,23.90
2019-05-21T04:22:01.577Z,22.55
2019-05-21T04:24:32.456Z,23.20
2019-05-21T04:27:03.968Z,18.40
2019-05-21T04:29:35.025Z,20.40
2019-05-21T04:32:06.100Z,22.85
2019-05-21T04:34:38.538Z,26.05
2019-05-21T04:37:11.874Z,17.40
2019-05-21T04:39:42.399Z,20.30
2019-05-21T04:42:13.187Z,25.72
2019-05-21T04:44:44.522Z,23.45
2019-05-21T04:47:15.933Z,21.97
2019-05-21T04:49:48.252Z,23.22
2019-05-21T04:52:19.095Z,19.45
2019-05-21T04:54:50.273Z,19.92
2019-05-21T04:57:21.730Z,21.77
2019-05-21T04:59:52.471Z,19.70
2019-05-21T05:02:23.427Z,22.52
2019-05-21T05:04:54.493Z,19.37
2019-05-21T05:07:28.336Z,24.43
2019-05-21T05:10:10.285Z,19.45
2019-05-21T05:12:42.192Z,20.90
2019-05-21T05:15:14.390Z,19.77
2019-05-21T05:17:48.758Z,20.35
2019-05-21T05:20:22.581Z,21.02
2019-05-21T05:22:54.471Z,20.52
2019-05-21T05:25:25.234Z,17.37
2019-05-21T05:27:56.556Z,29.70
2019-05-21T05:30:27.606Z,30.20
2019-05-21T05:32:59.741Z,21.17
2019-05-21T05:35:31.134Z,25.02
2019-05-21T05:38:02.789Z,25.27
2019-05-21T05:40:33.838Z,25.75
2019-05-21T05:43:04.804Z,20.05
2019-05-21T05:45:35.790Z,18.87
2019-05-21T05:48:06.644Z,19.73
2019-05-21T05:50:38.897Z,24.18
2019-05-21T05:53:09.753Z,17.75
2019-05-21T05:55:40.748Z,18.82
2019-05-21T05:58:12.199Z,21.60
2019-05-21T06:00:43.024Z,18.92
2019-05-21T06:03:16.377Z,18.95
2019-05-21T06:05:47.159Z,20.10
2019-05-21T06:08:18.024Z,17.05
2019-05-21T06:10:48.839Z,24.32
2019-05-21T06:13:19.700Z,18.73
2019-05-21T06:15:50.467Z,21.25
2019-05-21T06:18:21.358Z,19.85
2019-05-21T06:20:52.325Z,22.32
2019-05-21T06:23:23.122Z,16.80
2019-05-21T06:25:53.840Z,17.27
2019-05-21T06:28:24.833Z,24.12
2019-05-21T06:30:55.850Z,23.27
2019-05-21T06:33:26.664Z,21.85
2019-05-21T06:35:58.519Z,19.50
2019-05-21T06:38:29.704Z,20.43
2019-05-21T06:41:00.618Z,17.55
2019-05-21T06:43:31.588Z,19.23
2019-05-21T06:46:02.534Z,19.67
2019-05-21T06:48:33.310Z,23.92
2019-05-21T06:51:04.186Z,19.77
2019-05-21T06:53:35.235Z,17.73
2019-05-21T06:56:07.535Z,21.77
2019-05-21T06:58:38.507Z,18.57
2019-05-21T07:01:09.561Z,20.43
2019-05-21T07:03:40.509Z,17.55
2019-05-21T07:06:11.266Z,20.08
2019-05-21T07:08:42.127Z,17.90
2019-05-21T07:11:13.029Z,23.73
2019-05-21T07:13:43.789Z,16.80
2019-05-21T07:16:15.563Z,21.37
2019-05-21T07:18:46.358Z,20.62
2019-05-21T07:21:17.251Z,22.27
2019-05-21T07:23:48.108Z,24.20
2019-05-21T07:26:19.047Z,18.45
2019-05-21T07:28:50.151Z,26.73
2019-05-21T07:31:21.093Z,20.37
2019-05-21T07:33:52.183Z,28.23
2019-05-21T07:36:22.897Z,19.62
2019-05-21T07:38:54.343Z,18.60
2019-05-21T07:41:25.667Z,22.95
2019-05-21T07:43:57.032Z,21.23
2019-05-21T07:46:27.950Z,19.00
2019-05-21T07:48:59.347Z,19.90
2019-05-21T07:51:31.342Z,21.12
2019-05-21T07:54:02.202Z,18.20
2019-05-21T07:56:33.494Z,17.07
2019-05-21T07:59:04.245Z,18.75
2019-05-21T08:01:35.090Z,18.02
2019-05-21T08:04:08.937Z,15.88
2019-05-21T08:06:39.876Z,21.02
2019-05-21T08:09:15.070Z,21.05
2019-05-21T08:11:47.266Z,17.82
2019-05-21T08:14:18.379Z,18.92
2019-05-21T08:16:50.748Z,17.15
2019-05-21T08:19:22.054Z,18.10
2019-05-21T08:21:56.585Z,17.87
2019-05-21T08:24:27.463Z,17.42
2019-05-21T08:26:58.748Z,20.23
2019-05-21T08:29:29.697Z,18.45
2019-05-21T08:32:01.033Z,26.07
2019-05-21T08:34:32.114Z,18.27
2019-05-21T08:37:03.208Z,23.55
2019-05-21T08:39:34.192Z,25.68
2019-05-21T08:42:05.031Z,18.27
2019-05-21T08:44:36.185Z,25.17
2019-05-21T08:47:07.058Z,17.35
2019-05-21T08:49:39.248Z,19.67
2019-05-21T08:52:10.460Z,21.52
2019-05-21T08:54:42.740Z,21.95
2019-05-21T08:57:13.503Z,22.75
2019-05-21T08:59:44.506Z,26.07
2019-05-21T09:02:15.758Z,25.85
2019-05-21T09:04:46.910Z,22.22
2019-05-21T09:07:17.930Z,20.92
2019-05-21T09:09:51.417Z,19.32
2019-05-21T09:12:21.132Z,20.65
2019-05-21T09:14:51.759Z,18.82
2019-05-21T09:17:22.931Z,19.27
2019-05-21T09:19:54.040Z,30.05
2019-05-21T09:22:25.561Z,20.50
2019-05-21T09:24:57.946Z,154.18
2019-05-21T09:27:28.892Z,90.30
2019-05-21T09:30:00.069Z,35.95
2019-05-21T09:32:30.712Z,27.60
2019-05-21T09:35:01.715Z,25.45
2019-05-21T09:37:32.738Z,28.95
2019-05-21T09:40:03.700Z,24.75
2019-05-21T09:42:35.176Z,25.82
2019-05-21T09:45:08.460Z,22.77
2019-05-21T09:47:39.474Z,20.52
2019-05-21T09:50:11.095Z,26.62
2019-05-21T09:52:42.520Z,21.87
2019-05-21T09:55:13.550Z,22.17
2019-05-21T09:57:45.737Z,17.62
2019-05-21T10:00:19.496Z,16.60
2019-05-21T10:02:50.362Z,17.42
2019-05-21T10:05:21.734Z,24.85
2019-05-21T10:07:53.026Z,19.23
2019-05-21T10:10:25.800Z,21.27
2019-05-21T10:12:56.681Z,21.62
2019-05-21T10:15:27.541Z,18.20
2019-05-21T10:17:58.230Z,19.02
2019-05-21T10:20:29.174Z,15.43
2019-05-21T10:23:00.082Z,20.75
2019-05-21T10:25:31.136Z,17.55
2019-05-21T10:28:01.868Z,16.30
2019-05-21T10:30:32.795Z,18.42
2019-05-21T10:33:03.763Z,14.73
2019-05-21T10:35:34.566Z,20.02
2019-05-21T10:38:05.706Z,13.60
2019-05-21T10:40:36.305Z,16.05
2019-05-21T10:43:07.335Z,13.88
2019-05-21T10:45:38.648Z,10.28
2019-05-21T10:48:09.693Z,8.63
2019-05-21T10:50:40.390Z,10.08
2019-05-21T10:53:11.077Z,12.10
2019-05-21T10:55:42.085Z,7.08
2019-05-21T10:58:13.004Z,13.30
2019-05-21T11:00:44.473Z,9.93
2019-05-21T11:03:16.604Z,14.38
2019-05-21T11:05:48.959Z,13.28
2019-05-21T11:08:24.069Z,14.75
2019-05-21T11:10:52.021Z,16.57
2019-05-21T11:13:23.037Z,20.20
2019-05-21T11:15:53.867Z,12.20
2019-05-21T11:18:24.644Z,13.78
2019-05-21T11:20:55.465Z,14.50
2019-05-21T11:23:26.333Z,10.43
2019-05-21T11:25:57.165Z,9.73
2019-05-21T11:28:28.013Z,11.30
2019-05-21T11:30:58.986Z,11.48
2019-05-21T11:33:29.922Z,10.75
2019-05-21T11:36:00.699Z,13.75
2019-05-21T11:38:39.478Z,14.80
2019-05-21T11:41:03.612Z,13.05
2019-05-21T11:43:34.373Z,15.95
2019-05-21T11:46:05.337Z,10.60
2019-05-21T11:48:36.188Z,16.12
2019-05-21T11:51:07.114Z,13.65
2019-05-21T11:53:37.827Z,12.70
2019-05-21T11:56:08.730Z,20.08
2019-05-21T11:58:39.993Z,16.80
2019-05-21T12:01:11.125Z,13.95
2019-05-21T12:03:42.024Z,10.20
2019-05-21T12:06:12.802Z,14.53
2019-05-21T12:08:55.417Z,11.15
2019-05-21T12:11:15.832Z,14.43
2019-05-21T12:13:46.854Z,14.93
2019-05-21T12:16:17.910Z,12.28
2019-05-21T12:18:48.954Z,14.15
2019-05-21T12:21:19.783Z,14.10
2019-05-21T12:23:50.612Z,12.18
2019-05-21T12:26:21.481Z,8.80
2019-05-21T12:28:52.193Z,10.20
2019-05-21T12:31:23.156Z,12.90
2019-05-21T12:33:54.062Z,11.00
2019-05-21T12:36:25.688Z,9.35
2019-05-21T12:39:11.545Z,11.35
2019-05-21T12:41:28.923Z,11.45
2019-05-21T12:43:59.809Z,10.88
2019-05-21T12:46:30.568Z,9.63
2019-05-21T12:49:01.414Z,9.35
2019-05-21T12:51:32.265Z,13.58
2019-05-21T12:54:03.174Z,12.98
2019-05-21T12:56:34.077Z,10.75
2019-05-21T12:59:05.275Z,9.25
2019-05-21T13:01:36.296Z,14.43
2019-05-21T13:04:07.171Z,7.65
2019-05-21T13:06:38.027Z,9.23
2019-05-21T13:09:10.028Z,9.33
2019-05-21T13:11:40.788Z,10.55
2019-05-21T13:14:16.083Z,12.88
2019-05-21T13:16:44.118Z,12.75
2019-05-21T13:19:15.201Z,10.70
2019-05-21T13:21:46.409Z,9.03
2019-05-21T13:24:17.325Z,10.03
2019-05-21T13:26:48.192Z,11.90
2019-05-21T13:29:19.019Z,10.15
2019-05-21T13:31:50.125Z,8.75
2019-05-21T13:34:21.417Z,11.10
2019-05-21T13:36:52.346Z,10.25
2019-05-21T13:39:25.596Z,9.88
2019-05-21T13:41:55.728Z,10.82
2019-05-21T13:44:26.692Z,10.63
2019-05-21T13:46:57.732Z,9.78
2019-05-21T13:49:28.443Z,14.45
2019-05-21T13:51:59.484Z,10.82
2019-05-21T13:54:30.398Z,12.60
2019-05-21T13:57:01.295Z,10.38
2019-05-21T13:59:32.117Z,11.65
2019-05-21T14:02:03.096Z,19.42
2019-05-21T14:04:34.083Z,13.32
2019-05-21T14:07:05.011Z,12.58
2019-05-21T14:09:36.088Z,15.95
2019-05-21T14:12:07.069Z,11.25
2019-05-21T14:14:37.987Z,10.98
2019-05-21T14:17:08.918Z,13.40
2019-05-21T14:19:39.747Z,10.88
2019-05-21T14:22:11.012Z,12.88
2019-05-21T14:24:41.853Z,11.85
2019-05-21T14:27:12.970Z,13.60
2019-05-21T14:29:43.727Z,12.18
2019-05-21T14:32:14.685Z,15.15
2019-05-21T14:35:00.189Z,15.63
2019-05-21T14:37:17.866Z,13.53
2019-05-21T14:39:48.860Z,14.00
2019-05-21T14:42:19.676Z,13.62
2019-05-21T14:44:50.422Z,14.10
2019-05-21T14:47:21.349Z,11.15
2019-05-21T14:49:52.318Z,10.38
2019-05-21T14:52:23.009Z,16.52
2019-05-21T14:54:53.961Z,18.73
2019-05-21T14:57:24.871Z,18.02
2019-05-21T14:59:55.716Z,14.28
2019-05-21T15:02:26.682Z,14.68
2019-05-21T15:04:57.587Z,17.57
2019-05-21T15:07:28.605Z,13.40
2019-05-21T15:09:59.517Z,17.82
2019-05-21T15:12:30.374Z,15.25
2019-05-21T15:15:01.306Z,16.67
2019-05-21T15:17:32.142Z,12.20
2019-05-21T15:20:04.324Z,13.32
2019-05-21T15:22:35.378Z,16.77
2019-05-21T15:25:06.993Z,13.40
2019-05-21T15:27:38.220Z,13.68
2019-05-21T15:30:10.277Z,17.50
2019-05-21T15:32:41.109Z,16.02
2019-05-21T15:35:12.183Z,14.00
2019-05-21T15:37:44.981Z,14.87
2019-05-21T15:40:15.782Z,10.78
2019-05-21T15:42:51.287Z,11.45
2019-05-21T15:45:19.467Z,13.20
2019-05-21T15:47:50.112Z,17.20
2019-05-21T15:50:20.925Z,16.35
2019-05-21T15:52:52.086Z,15.18
2019-05-21T15:55:22.789Z,12.20
2019-05-21T15:57:53.879Z,11.65
2019-05-21T16:00:25.137Z,10.53
2019-05-21T16:02:56.053Z,11.68
2019-05-21T16:05:26.805Z,14.38
2019-05-21T16:07:57.758Z,12.00
2019-05-21T16:10:28.723Z,11.68
2019-05-21T16:12:59.329Z,12.25
2019-05-21T16:15:30.015Z,12.10
2019-05-21T16:18:00.985Z,13.40
2019-05-21T16:20:31.929Z,10.53
2019-05-21T16:23:02.857Z,13.28
2019-05-21T16:25:33.541Z,13.58
2019-05-21T16:28:04.403Z,9.83
2019-05-21T16:30:35.265Z,12.98
2019-05-21T16:33:06.022Z,14.50
2019-05-21T16:35:36.964Z,14.85
2019-05-21T16:38:07.925Z,15.65
2019-05-21T16:40:38.717Z,18.07
2019-05-21T16:43:09.915Z,14.25
2019-05-21T16:45:40.647Z,18.25
2019-05-21T16:48:11.607Z,18.40
2019-05-21T16:50:42.670Z,16.02
2019-05-21T16:53:13.483Z,20.75
2019-05-21T16:55:44.502Z,16.45
2019-05-21T16:58:15.276Z,15.90
2019-05-21T17:00:46.242Z,15.60
2019-05-21T17:03:17.002Z,15.83
2019-05-21T17:05:47.729Z,13.78
2019-05-21T17:08:18.789Z,16.30
2019-05-21T17:10:49.762Z,16.37
2019-05-21T17:13:20.446Z,14.93
2019-05-21T17:15:51.300Z,16.90
2019-05-21T17:18:22.295Z,13.18
2019-05-21T17:20:53.089Z,13.90
2019-05-21T17:23:24.070Z,15.03
2019-05-21T17:25:54.963Z,12.30
2019-05-21T17:28:26.025Z,12.07
2019-05-21T17:30:57.028Z,13.10
2019-05-21T17:33:27.959Z,11.03
2019-05-21T17:35:58.991Z,13.72
2019-05-21T17:38:29.491Z,12.58
2019-05-21T17:41:00.377Z,11.38
2019-05-21T17:43:31.189Z,13.18
2019-05-21T17:46:02.156Z,13.20
2019-05-21T17:48:33.063Z,11.03
2019-05-21T17:51:03.977Z,14.53
2019-05-21T17:53:34.790Z,10.43
2019-05-21T17:56:05.860Z,13.38
2019-05-21T17:58:36.931Z,11.08
2019-05-21T18:01:09.080Z,12.98
2019-05-21T18:03:39.911Z,14.85
2019-05-21T18:06:11.813Z,12.95
2019-05-21T18:08:42.862Z,12.07
2019-05-21T18:11:15.127Z,13.80
2019-05-21T18:13:47.973Z,14.05
2019-05-21T18:16:18.539Z,12.90
2019-05-21T18:18:49.651Z,9.98
2019-05-21T18:21:21.297Z,13.38
2019-05-21T18:23:52.174Z,10.30
2019-05-21T18:26:23.180Z,14.65
2019-05-21T18:28:54.130Z,14.93
2019-05-21T18:31:25.112Z,18.17
2019-05-21T18:33:55.973Z,16.27
2019-05-21T18:36:26.702Z,17.32
2019-05-21T18:38:57.996Z,14.20
2019-05-21T18:41:28.750Z,14.20
2019-05-21T18:43:59.778Z,13.55
2019-05-21T18:46:30.697Z,14.07
2019-05-21T18:49:01.536Z,16.35
2019-05-21T18:51:32.611Z,11.40
2019-05-21T18:54:03.506Z,11.78
2019-05-21T18:56:34.562Z,13.30
2019-05-21T18:59:05.338Z,14.38
2019-05-21T19:01:38.398Z,14.03
2019-05-21T19:04:08.424Z,13.72
2019-05-21T19:06:39.800Z,12.93
2019-05-21T19:09:10.623Z,11.78
2019-05-21T19:11:41.781Z,12.55
2019-05-21T19:14:13.248Z,16.20
2019-05-21T19:16:43.997Z,16.07
2019-05-21T19:19:14.875Z,13.88
2019-05-21T19:21:45.828Z,12.23
2019-05-21T19:24:16.706Z,10.82
2019-05-21T19:26:47.580Z,8.78
2019-05-21T19:29:18.576Z,9.80
2019-05-21T19:31:49.550Z,12.82
2019-05-21T19:34:20.309Z,10.35
2019-05-21T19:36:51.159Z,13.85
2019-05-21T19:39:21.860Z,9.63
2019-05-21T19:41:52.705Z,9.93
2019-05-21T19:44:23.663Z,8.88
2019-05-21T19:46:54.645Z,10.72
2019-05-21T19:49:25.334Z,9.05
2019-05-21T19:51:56.295Z,9.95
2019-05-21T19:54:27.353Z,10.88
2019-05-21T19:56:58.317Z,9.95
2019-05-21T19:59:29.110Z,14.15
2019-05-21T20:02:00.173Z,15.58
2019-05-21T20:04:31.526Z,13.28
2019-05-21T20:07:02.518Z,15.15
2019-05-21T20:09:34.381Z,10.23
2019-05-21T20:12:05.747Z,14.68
2019-05-21T20:14:36.727Z,14.95
2019-05-21T20:17:09.003Z,14.30
2019-05-21T20:19:40.711Z,13.65
2019-05-21T20:22:12.784Z,12.33
2019-05-21T20:24:43.950Z,12.25
2019-05-21T20:27:14.656Z,16.32
2019-05-21T20:29:45.513Z,10.50
2019-05-21T20:32:17.707Z,13.38
2019-05-21T20:34:50.968Z,13.18
2019-05-21T20:37:22.205Z,13.50
2019-05-21T20:39:53.710Z,11.22
2019-05-21T20:42:26.270Z,8.78
2019-05-21T20:44:57.235Z,14.47
2019-05-21T20:47:28.520Z,10.75
2019-05-21T20:49:59.745Z,13.58
2019-05-21T20:52:30.915Z,15.85
2019-05-21T20:55:01.741Z,15.93
2019-05-21T20:57:32.890Z,16.90
2019-05-21T21:00:04.060Z,11.28
2019-05-21T21:02:35.313Z,10.32
2019-05-21T21:05:07.579Z,12.28
2019-05-21T21:07:39.735Z,15.65
2019-05-21T21:10:12.119Z,18.07
2019-05-21T21:12:43.203Z,18.52
2019-05-21T21:15:15.825Z,23.42
2019-05-21T21:17:46.928Z,20.60
2019-05-21T21:20:18.104Z,19.10
2019-05-21T21:22:49.209Z,14.65
2019-05-21T21:25:21.960Z,12.33
2019-05-21T21:27:53.592Z,11.43
2019-05-21T21:30:24.806Z,16.67
2019-05-21T21:32:56.282Z,16.77
2019-05-21T21:35:27.334Z,9.93
2019-05-21T21:37:58.246Z,8.58
2019-05-21T21:40:29.311Z,5.20
2019-05-21T21:43:00.438Z,5.55
2019-05-21T21:45:31.340Z,8.30
2019-05-21T21:48:02.927Z,8.98
2019-05-21T21:50:34.841Z,10.32
2019-05-21T21:53:05.665Z,11.97
2019-05-21T21:55:36.860Z,12.85
2019-05-21T21:58:07.842Z,14.53
2019-05-21T22:00:42.262Z,13.72
2019-05-21T22:03:14.701Z,9.65
2019-05-21T22:05:45.863Z,9.35
2019-05-21T22:08:17.217Z,9.50
2019-05-21T22:10:48.107Z,7.92
2019-05-21T22:13:19.640Z,8.58
2019-05-21T22:15:50.666Z,6.72
2019-05-21T22:18:22.064Z,5.03
2019-05-21T22:20:53.298Z,4.42
2019-05-21T22:23:24.595Z,7.12
2019-05-21T22:25:55.537Z,6.37
2019-05-21T22:28:26.522Z,8.68
